Time;durP1;ratioP1;P1;durP2;ratioP2;P2;SDS_P1;SDS_P2;PMS_P1;PMS_P2;Temp;Humidity;BMP_temperature;BMP_pressure;BME280_temperature;BME280_humidity;BME280_pressure;Samples;Min_cycle;Max_cycle;Signal;HPM_P1;HPM_P2
2023/09/26 00:00:21;;;;;;;;;;;23.90;60.10;;;;;;5051997;28;20026;-63
2023/09/26 00:02:50;;;;;;;;;;;23.90;60.10;;;;;;5052383;28;19925;-63
2023/09/26 00:05:18;;;;;;;;;;;23.90;60.10;;;;;;5052360;28;19925;-63
2023/09/26 00:07:47;;;;;;;;;;;23.90;60.10;;;;;;5052401;28;20285;-63
2023/09/26 00:10:16;;;;;;;;;;;23.90;60.10;;;;;;5052099;28;19932;-63
2023/09/26 00:12:43;;;;;;;;;;;23.90;60.10;;;;;;5052940;28;19968;-63
2023/09/26 00:15:11;;;;;;;;;;;23.90;60.10;;;;;;5051332;28;19925;-64
2023/09/26 00:17:39;;;;;;;;;;;23.90;60.00;;;;;;5056057;28;19925;-64
2023/09/26 00:20:10;;;;;;;;;;;23.90;60.10;;;;;;5056577;28;19931;-63
2023/09/26 00:22:37;;;;;;;;;;;23.90;60.00;;;;;;5055990;28;20378;-63
2023/09/26 00:25:05;;;;;;;;;;;23.90;60.00;;;;;;5055996;28;19932;-63
2023/09/26 00:27:33;;;;;;;;;;;23.90;60.00;;;;;;5056449;28;20011;-63
2023/09/26 00:30:00;;;;;;;;;;;23.90;60.00;;;;;;5056199;28;19939;-63
2023/09/26 00:32:30;;;;;;;;;;;23.90;60.00;;;;;;5056579;28;19925;-63
2023/09/26 00:34:57;;;;;;;;;;;23.90;60.00;;;;;;5054627;28;19929;-64
2023/09/26 00:37:24;;;;;;;;;;;23.90;60.00;;;;;;5056144;28;20263;-63
2023/09/26 00:39:52;;;;;;;;;;;23.90;60.00;;;;;;5055773;28;19929;-63
2023/09/26 00:42:19;;;;;;;;;;;23.90;60.00;;;;;;5055934;28;19991;-63
2023/09/26 00:44:47;;;;;;;;;;;23.90;60.00;;;;;;5055954;28;19963;-63
2023/09/26 00:47:16;;;;;;;;;;;23.90;59.90;;;;;;5056155;28;19983;-63
2023/09/26 00:49:43;;;;;;;;;;;23.90;59.90;;;;;;5055529;28;19929;-63
2023/09/26 00:52:10;;;;;;;;;;;23.90;60.10;;;;;;5056156;28;20439;-63
2023/09/26 00:54:37;;;;;;;;;;;23.90;59.80;;;;;;5055428;28;19925;-63
2023/09/26 00:57:05;;;;;;;;;;;23.90;59.80;;;;;;5055783;28;19928;-63
2023/09/26 00:59:32;;;;;;;;;;;23.90;59.80;;;;;;5055475;28;19970;-63
2023/09/26 01:01:59;;;;;;;;;;;23.90;59.70;;;;;;5055384;28;19924;-63
2023/09/26 01:04:27;;;;;;;;;;;23.90;59.70;;;;;;5055777;28;20019;-63
2023/09/26 01:06:54;;;;;;;;;;;23.90;59.70;;;;;;5054865;28;19947;-63
2023/09/26 01:09:23;;;;;;;;;;;23.90;59.70;;;;;;5055065;28;19924;-63
2023/09/26 01:11:50;;;;;;;;;;;23.90;59.70;;;;;;5055578;28;19951;-63
2023/09/26 01:14:17;;;;;;;;;;;23.90;59.70;;;;;;5055412;28;20304;-63
2023/09/26 01:16:44;;;;;;;;;;;23.90;59.70;;;;;;5037845;28;20036;-63
2023/09/26 01:19:11;;;;;;;;;;;23.90;59.70;;;;;;5055698;28;19924;-63
2023/09/26 01:21:39;;;;;;;;;;;23.80;59.70;;;;;;5055433;28;19932;-63
2023/09/26 01:24:06;;;;;;;;;;;23.90;59.80;;;;;;5055390;28;20326;-64
2023/09/26 01:26:33;;;;;;;;;;;23.80;59.70;;;;;;5054780;28;19925;-63
2023/09/26 01:29:01;;;;;;;;;;;23.90;59.80;;;;;;5037428;28;19925;-62
2023/09/26 01:31:28;;;;;;;;;;;23.90;59.70;;;;;;5054565;28;19986;-63
2023/09/26 01:33:55;;;;;;;;;;;23.90;59.80;;;;;;5055227;28;19941;-63
2023/09/26 01:36:26;;;;;;;;;;;23.90;59.70;;;;;;5054260;28;19928;-63
2023/09/26 01:38:54;;;;;;;;;;;23.90;59.70;;;;;;5055202;28;19971;-63
2023/09/26 01:41:24;;;;;;;;;;;23.90;59.70;;;;;;5054814;28;19975;-63
2023/09/26 01:43:51;;;;;;;;;;;23.80;59.70;;;;;;5055409;28;19964;-63
2023/09/26 01:46:22;;;;;;;;;;;23.80;59.70;;;;;;5053814;28;19936;-63
2023/09/26 01:48:50;;;;;;;;;;;23.80;59.70;;;;;;5054673;28;19932;-63
2023/09/26 01:51:17;;;;;;;;;;;23.80;59.70;;;;;;5054342;28;19925;-63
2023/09/26 01:53:44;;;;;;;;;;;23.80;59.70;;;;;;5054628;28;20400;-63
2023/09/26 01:56:11;;;;;;;;;;;23.80;59.70;;;;;;5054284;28;19931;-64
2023/09/26 01:58:38;;;;;;;;;;;23.80;59.70;;;;;;5054186;28;19925;-63
2023/09/26 02:01:05;;;;;;;;;;;23.80;59.70;;;;;;5053746;28;19925;-63
2023/09/26 02:03:32;;;;;;;;;;;23.80;59.60;;;;;;5054283;28;19932;-63
2023/09/26 02:06:00;;;;;;;;;;;23.80;59.60;;;;;;5053670;28;20373;-63
2023/09/26 02:08:28;;;;;;;;;;;23.80;59.60;;;;;;5054447;28;19925;-63
2023/09/26 02:10:55;;;;;;;;;;;23.80;59.50;;;;;;5053893;28;19982;-63
2023/09/26 02:13:22;;;;;;;;;;;23.80;59.50;;;;;;5054561;28;20360;-63
2023/09/26 02:15:49;;;;;;;;;;;23.80;59.50;;;;;;5053642;28;19986;-63
2023/09/26 02:18:16;;;;;;;;;;;23.80;59.40;;;;;;5055097;28;19937;-63
2023/09/26 02:20:44;;;;;;;;;;;23.90;59.50;;;;;;5053811;28;20358;-63
2023/09/26 02:23:11;;;;;;;;;;;23.90;59.50;;;;;;5054377;28;19980;-63
2023/09/26 02:25:38;;;;;;;;;;;23.90;59.40;;;;;;5053139;28;19971;-63
2023/09/26 02:28:05;;;;;;;;;;;23.90;59.50;;;;;;5054216;28;19978;-63
2023/09/26 02:30:32;;;;;;;;;;;23.80;59.40;;;;;;5053813;28;19925;-63
2023/09/26 02:33:00;;;;;;;;;;;23.80;59.40;;;;;;5054316;28;19939;-63
2023/09/26 02:35:27;;;;;;;;;;;23.90;59.50;;;;;;5053571;28;20447;-63
2023/09/26 02:37:54;;;;;;;;;;;23.80;59.40;;;;;;5054261;28;19976;-63
2023/09/26 02:40:21;;;;;;;;;;;23.80;59.50;;;;;;5053158;28;19955;-63
2023/09/26 02:42:50;;;;;;;;;;;23.80;59.50;;;;;;5054521;28;19928;-63
2023/09/26 02:45:18;;;;;;;;;;;23.80;59.40;;;;;;5054011;28;19952;-63
2023/09/26 02:47:45;;;;;;;;;;;23.80;59.40;;;;;;5052005;28;20335;-63
2023/09/26 02:50:12;;;;;;;;;;;23.80;59.40;;;;;;5053684;28;19936;-63
2023/09/26 02:52:41;;;;;;;;;;;23.80;59.50;;;;;;5054403;28;19931;-63
2023/09/26 02:55:08;;;;;;;;;;;23.80;59.50;;;;;;5053111;28;20382;-63
2023/09/26 02:57:36;;;;;;;;;;;23.80;59.50;;;;;;5053278;28;19928;-63
2023/09/26 03:00:12;;;;;;;;;;;23.80;59.50;;;;;;5052901;28;19964;-63
2023/09/26 03:02:39;;;;;;;;;;;23.80;59.50;;;;;;5054079;28;19924;-63
2023/09/26 03:05:07;;;;;;;;;;;23.80;59.50;;;;;;5053253;28;19931;-63
2023/09/26 03:07:34;;;;;;;;;;;23.80;59.40;;;;;;5053494;28;19971;-63
2023/09/26 03:10:01;;;;;;;;;;;23.80;59.40;;;;;;5053620;28;20545;-63
2023/09/26 03:12:28;;;;;;;;;;;23.80;59.40;;;;;;5053927;28;20285;-63
2023/09/26 03:14:56;;;;;;;;;;;23.80;59.40;;;;;;5053979;28;19925;-63
2023/09/26 03:17:23;;;;;;;;;;;23.80;59.40;;;;;;5053073;28;19924;-64
2023/09/26 03:19:50;;;;;;;;;;;23.80;59.40;;;;;;5052923;28;20367;-63
2023/09/26 03:22:17;;;;;;;;;;;23.80;59.40;;;;;;5053239;28;19929;-63
2023/09/26 03:24:44;;;;;;;;;;;23.80;59.40;;;;;;5053723;28;19931;-63
2023/09/26 03:27:11;;;;;;;;;;;23.80;59.30;;;;;;5053052;28;20013;-63
2023/09/26 03:29:38;;;;;;;;;;;23.80;59.30;;;;;;5052986;28;19929;-63
2023/09/26 03:32:06;;;;;;;;;;;23.80;59.30;;;;;;5058470;28;19929;-63
2023/09/26 03:34:33;;;;;;;;;;;23.80;59.20;;;;;;5072749;28;19924;-63
2023/09/26 03:37:00;;;;;;;;;;;23.80;59.70;;;;;;5072684;28;19978;-63
2023/09/26 03:39:27;;;;;;;;;;;23.80;59.20;;;;;;5073317;28;20304;-64
2023/09/26 03:41:54;;;;;;;;;;;23.80;59.20;;;;;;5070114;28;19970;-61
2023/09/26 03:44:21;;;;;;;;;;;23.80;59.20;;;;;;5051863;28;20024;-63
2023/09/26 03:46:48;;;;;;;;;;;23.80;59.10;;;;;;5052403;28;19929;-63
2023/09/26 03:49:15;;;;;;;;;;;23.80;59.10;;;;;;5052595;28;19982;-63
2023/09/26 03:51:42;;;;;;;;;;;23.80;59.20;;;;;;5052914;28;20019;-63
2023/09/26 03:54:09;;;;;;;;;;;23.80;59.20;;;;;;5052566;28;19925;-63
2023/09/26 03:56:36;;;;;;;;;;;23.80;59.10;;;;;;5052482;28;19924;-63
2023/09/26 03:59:03;;;;;;;;;;;23.80;59.20;;;;;;5053002;28;19928;-63
2023/09/26 04:01:30;;;;;;;;;;;23.80;59.20;;;;;;5052272;28;20372;-63
2023/09/26 04:03:57;;;;;;;;;;;23.80;59.20;;;;;;5052424;28;20016;-63
2023/09/26 04:06:25;;;;;;;;;;;23.80;59.20;;;;;;5052920;28;19925;-63
2023/09/26 04:08:52;;;;;;;;;;;23.80;59.20;;;;;;5053139;28;20347;-63
2023/09/26 04:11:19;;;;;;;;;;;23.80;59.20;;;;;;5053173;28;19925;-63
2023/09/26 04:13:46;;;;;;;;;;;23.80;59.20;;;;;;5051949;28;19929;-63
2023/09/26 04:16:13;;;;;;;;;;;23.80;59.20;;;;;;5052131;28;19925;-63
2023/09/26 04:18:40;;;;;;;;;;;23.80;59.20;;;;;;5052031;28;19971;-63
2023/09/26 04:21:08;;;;;;;;;;;23.80;59.20;;;;;;5051946;28;19925;-63
2023/09/26 04:23:38;;;;;;;;;;;23.80;59.20;;;;;;5052914;28;19932;-63
2023/09/26 04:26:15;;;;;;;;;;;23.80;59.10;;;;;;5047565;28;19948;-63
2023/09/26 04:28:43;;;;;;;;;;;23.80;59.70;;;;;;5042796;28;19967;-63
2023/09/26 04:31:11;;;;;;;;;;;23.80;59.20;;;;;;5042076;28;19925;-63
2023/09/26 04:33:38;;;;;;;;;;;23.80;59.20;;;;;;5041803;28;19979;-63
2023/09/26 04:36:05;;;;;;;;;;;23.70;59.00;;;;;;5042397;28;19931;-63
2023/09/26 04:38:32;;;;;;;;;;;23.70;59.10;;;;;;5043454;28;20373;-62
2023/09/26 04:41:03;;;;;;;;;;;23.70;59.10;;;;;;5046809;28;19936;-62
2023/09/26 04:43:31;;;;;;;;;;;23.60;59.30;;;;;;5047546;28;19925;-62
2023/09/26 04:45:58;;;;;;;;;;;23.40;59.40;;;;;;5052871;28;20300;-63
2023/09/26 04:48:25;;;;;;;;;;;23.20;58.00;;;;;;5052665;28;19975;-62
2023/09/26 04:50:54;;;;;;;;;;;22.90;56.50;;;;;;5052675;28;19939;-62
2023/09/26 04:53:22;;;;;;;;;;;22.60;54.80;;;;;;5048866;28;19925;-63
2023/09/26 04:55:49;;;;;;;;;;;22.40;53.90;;;;;;5041036;28;20044;-63
2023/09/26 04:58:16;;;;;;;;;;;22.10;54.00;;;;;;5037950;28;19924;-63
2023/09/26 05:00:44;;;;;;;;;;;21.80;53.10;;;;;;5049246;28;19935;-63
2023/09/26 05:03:11;;;;;;;;;;;21.60;54.40;;;;;;5054636;28;19925;-63
2023/09/26 05:05:38;;;;;;;;;;;21.30;53.30;;;;;;5055596;28;19928;-63
2023/09/26 05:08:06;;;;;;;;;;;21.00;53.60;;;;;;5055813;28;19970;-63
2023/09/26 05:10:36;;;;;;;;;;;20.70;53.80;;;;;;5054991;28;19932;-63
2023/09/26 05:13:04;;;;;;;;;;;20.40;55.30;;;;;;5055129;28;19928;-63
2023/09/26 05:15:32;;;;;;;;;;;20.20;54.50;;;;;;5062255;28;19924;-63
2023/09/26 05:18:00;;;;;;;;;;;20.00;55.30;;;;;;5055380;28;19968;-62
2023/09/26 05:20:27;;;;;;;;;;;19.80;54.90;;;;;;5054098;28;19932;-62
2023/09/26 05:22:54;;;;;;;;;;;19.70;55.20;;;;;;5045843;28;19929;-63
2023/09/26 05:25:21;;;;;;;;;;;19.50;52.70;;;;;;5050776;28;19970;-62
2023/09/26 05:27:48;;;;;;;;;;;19.40;53.90;;;;;;5048346;28;19939;-62
2023/09/26 05:30:16;;;;;;;;;;;19.30;54.10;;;;;;5046409;28;19970;-61
2023/09/26 05:32:43;;;;;;;;;;;19.20;53.60;;;;;;5042130;28;20301;-63
2023/09/26 05:35:11;;;;;;;;;;;19.00;53.00;;;;;;5043379;28;19933;-62
2023/09/26 05:37:38;;;;;;;;;;;19.00;54.30;;;;;;5041843;28;20028;-61
2023/09/26 05:40:09;;;;;;;;;;;18.90;53.80;;;;;;5045688;28;20082;-62
2023/09/26 05:42:37;;;;;;;;;;;18.80;53.20;;;;;;5036525;28;19933;-63
2023/09/26 05:45:05;;;;;;;;;;;18.80;54.00;;;;;;5043610;28;19951;-63
2023/09/26 05:47:32;;;;;;;;;;;18.70;54.90;;;;;;5040163;28;19924;-62
2023/09/26 05:50:00;;;;;;;;;;;18.70;53.30;;;;;;5039430;28;19970;-66
2023/09/26 05:52:28;;;;;;;;;;;18.60;54.30;;;;;;5042406;28;19940;-64
2023/09/26 05:54:55;;;;;;;;;;;18.60;55.10;;;;;;5037087;28;20365;-64
2023/09/26 05:57:22;;;;;;;;;;;18.60;54.40;;;;;;5045863;28;19964;-65
2023/09/26 05:59:49;;;;;;;;;;;18.50;53.50;;;;;;5042058;28;19929;-64
2023/09/26 06:02:16;;;;;;;;;;;18.50;54.50;;;;;;5038005;28;19972;-63
2023/09/26 06:04:44;;;;;;;;;;;18.50;54.60;;;;;;5044599;28;19956;-63
2023/09/26 06:07:13;;;;;;;;;;;18.40;52.70;;;;;;5052223;28;20032;-63
2023/09/26 06:09:40;;;;;;;;;;;18.40;53.90;;;;;;5045042;28;20017;-63
2023/09/26 06:12:23;;;;;;;;;;;18.40;54.10;;;;;;5044088;28;19979;-63
2023/09/26 06:14:51;;;;;;;;;;;18.40;53.30;;;;;;5042756;28;20266;-62
2023/09/26 06:17:18;;;;;;;;;;;18.30;53.30;;;;;;5049703;28;19928;-65
2023/09/26 06:19:46;;;;;;;;;;;18.20;53.50;;;;;;5044495;28;19933;-65
2023/09/26 06:22:14;;;;;;;;;;;18.20;55.00;;;;;;5047007;28;19933;-64
2023/09/26 06:24:45;;;;;;;;;;;18.10;53.00;;;;;;5042605;28;19929;-64
2023/09/26 06:27:12;;;;;;;;;;;18.10;54.30;;;;;;5047310;28;19964;-64
2023/09/26 06:29:39;;;;;;;;;;;18.10;55.40;;;;;;5051435;28;20442;-63
2023/09/26 06:32:06;;;;;;;;;;;18.10;52.80;;;;;;5044569;28;19936;-64
2023/09/26 06:34:35;;;;;;;;;;;18.10;53.30;;;;;;5044704;28;19929;-64
2023/09/26 06:37:03;;;;;;;;;;;18.10;53.80;;;;;;5044733;28;20001;-62
2023/09/26 06:39:30;;;;;;;;;;;18.10;53.80;;;;;;5047730;28;19958;-63
2023/09/26 06:41:57;;;;;;;;;;;18.00;54.40;;;;;;5054063;28;19982;-63
2023/09/26 06:44:24;;;;;;;;;;;18.00;56.10;;;;;;5043078;28;19929;-63
2023/09/26 06:46:51;;;;;;;;;;;18.00;56.10;;;;;;5042043;28;20419;-63
2023/09/26 06:49:19;;;;;;;;;;;18.00;56.10;;;;;;5040461;28;19929;-63
2023/09/26 06:51:46;;;;;;;;;;;18.00;54.60;;;;;;5045119;28;19925;-64
2023/09/26 06:54:13;;;;;;;;;;;18.00;57.60;;;;;;5042955;28;19932;-65
2023/09/26 06:56:40;;;;;;;;;;;18.00;58.20;;;;;;5041589;28;20374;-63
2023/09/26 06:59:08;;;;;;;;;;;17.90;57.30;;;;;;5043888;28;20019;-64
2023/09/26 07:01:36;;;;;;;;;;;17.90;57.90;;;;;;5046095;28;19936;-64
2023/09/26 07:04:13;;;;;;;;;;;17.90;55.20;;;;;;5044861;28;19925;-64
2023/09/26 07:06:41;;;;;;;;;;;17.90;56.90;;;;;;5038693;28;19933;-66
2023/09/26 07:09:12;;;;;;;;;;;17.90;55.30;;;;;;5041785;28;19929;-66
2023/09/26 07:11:40;;;;;;;;;;;17.90;57.30;;;;;;5039190;28;20002;-63
2023/09/26 07:14:07;;;;;;;;;;;17.90;56.80;;;;;;5041344;28;19936;-64
2023/09/26 07:16:34;;;;;;;;;;;17.90;57.80;;;;;;5038652;28;20031;-64
2023/09/26 07:19:02;;;;;;;;;;;17.80;59.10;;;;;;5039365;28;19963;-62
2023/09/26 07:21:30;;;;;;;;;;;17.80;58.70;;;;;;5034252;28;19929;-63
2023/09/26 07:23:58;;;;;;;;;;;17.80;57.70;;;;;;5040687;28;19932;-64
2023/09/26 07:26:26;;;;;;;;;;;17.80;57.70;;;;;;5040041;28;20016;-63
2023/09/26 07:28:55;;;;;;;;;;;17.80;58.70;;;;;;5044598;28;20372;-65
2023/09/26 07:31:22;;;;;;;;;;;17.80;59.70;;;;;;5044268;28;19931;-61
2023/09/26 07:33:49;;;;;;;;;;;17.90;58.80;;;;;;5042550;28;19980;-61
2023/09/26 07:36:17;;;;;;;;;;;17.90;59.00;;;;;;5041160;28;20296;-61
2023/09/26 07:38:44;;;;;;;;;;;17.90;57.30;;;;;;5043503;28;19933;-63
2023/09/26 07:41:12;;;;;;;;;;;18.00;59.10;;;;;;5044466;28;19932;-63
2023/09/26 07:43:39;;;;;;;;;;;18.00;59.20;;;;;;5038599;28;20396;-63
2023/09/26 07:46:09;;;;;;;;;;;18.00;59.30;;;;;;5042449;28;19928;-62
2023/09/26 07:48:37;;;;;;;;;;;18.00;59.30;;;;;;5042478;28;19933;-62
2023/09/26 07:51:05;;;;;;;;;;;18.00;59.90;;;;;;5038193;28;19976;-61
2023/09/26 07:53:32;;;;;;;;;;;18.00;60.00;;;;;;5042945;28;19933;-62
2023/09/26 07:56:02;;;;;;;;;;;18.10;59.70;;;;;;5046088;28;19931;-63
2023/09/26 07:58:29;;;;;;;;;;;18.10;60.30;;;;;;5040758;28;19979;-63
2023/09/26 08:00:58;;;;;;;;;;;18.10;60.20;;;;;;5045717;28;20364;-61
2023/09/26 08:03:26;;;;;;;;;;;18.20;59.80;;;;;;5043501;28;19936;-61
2023/09/26 08:06:00;;;;;;;;;;;18.20;60.10;;;;;;5042108;28;20010;-60
2023/09/26 08:08:31;;;;;;;;;;;18.20;60.30;;;;;;5045083;28;19932;-61
2023/09/26 08:11:06;;;;;;;;;;;18.20;59.50;;;;;;5043054;28;19929;-59
2023/09/26 08:13:34;;;;;;;;;;;18.20;60.50;;;;;;5042708;28;19924;-60
2023/09/26 08:16:01;;;;;;;;;;;18.30;59.50;;;;;;5044661;28;19933;-60
2023/09/26 08:18:28;;;;;;;;;;;18.20;59.60;;;;;;5043478;28;19968;-60
2023/09/26 08:20:57;;;;;;;;;;;18.30;60.10;;;;;;5043028;28;19924;-60
2023/09/26 08:23:25;;;;;;;;;;;18.30;59.50;;;;;;5044541;28;19943;-60
2023/09/26 08:26:00;;;;;;;;;;;18.30;61.30;;;;;;5041614;28;19928;-61
2023/09/26 08:28:28;;;;;;;;;;;18.30;60.90;;;;;;5045666;28;21141;-62
2023/09/26 08:30:59;;;;;;;;;;;18.30;61.60;;;;;;5045971;28;20324;-61
2023/09/26 08:33:27;;;;;;;;;;;18.30;60.80;;;;;;5041782;28;20046;-62
2023/09/26 08:35:54;;;;;;;;;;;18.30;61.50;;;;;;5042459;28;19936;-63
2023/09/26 08:38:21;;;;;;;;;;;18.30;61.10;;;;;;5063384;28;19932;-62
2023/09/26 08:40:51;;;;;;;;;;;18.30;60.90;;;;;;5042909;28;20020;-62
2023/09/26 08:43:22;;;;;;;;;;;18.40;60.10;;;;;;5047790;28;20916;-64
2023/09/26 08:45:50;;;;;;;;;;;18.40;61.20;;;;;;5044977;28;19933;-64
2023/09/26 08:48:18;;;;;;;;;;;18.40;61.60;;;;;;5046558;28;19978;-63
2023/09/26 08:50:46;;;;;;;;;;;18.40;62.80;;;;;;5045936;28;19971;-63
2023/09/26 08:53:13;;;;;;;;;;;18.40;62.10;;;;;;5044526;28;19937;-62
2023/09/26 08:55:42;;;;;;;;;;;18.50;63.00;;;;;;5046332;28;20361;-62
2023/09/26 08:58:09;;;;;;;;;;;18.50;62.60;;;;;;5045959;28;19929;-67
2023/09/26 09:00:36;;;;;;;;;;;18.50;62.10;;;;;;5050494;28;19935;-66
2023/09/26 09:03:03;;;;;;;;;;;18.50;62.50;;;;;;5047202;28;20353;-68
2023/09/26 09:05:30;;;;;;;;;;;18.50;62.50;;;;;;5046344;28;19924;-62
2023/09/26 09:07:58;;;;;;;;;;;18.50;62.50;;;;;;5048641;28;20289;-63
2023/09/26 09:10:24;;;;;;;;;;;18.40;61.80;;;;;;5046060;28;19929;-64
2023/09/26 09:13:00;;;;;;;;;;;18.50;62.20;;;;;;5050978;28;19951;-63
2023/09/26 09:15:29;;;;;;;;;;;18.50;63.80;;;;;;5048125;28;19928;-62
2023/09/26 09:17:57;;;;;;;;;;;18.50;63.20;;;;;;5047507;28;20011;-60
2023/09/26 09:20:29;;;;;;;;;;;18.50;62.90;;;;;;5047028;28;19979;-60
2023/09/26 09:23:01;;;;;;;;;;;18.50;63.10;;;;;;5048260;28;19936;-61
2023/09/26 09:25:29;;;;;;;;;;;18.60;63.40;;;;;;5041129;28;20380;-61
2023/09/26 09:27:58;;;;;;;;;;;18.60;63.20;;;;;;5046992;28;20348;-61
2023/09/26 09:30:26;;;;;;;;;;;18.60;62.80;;;;;;5041909;28;20307;-62
2023/09/26 09:32:53;;;;;;;;;;;18.60;63.90;;;;;;5042646;28;19986;-61
2023/09/26 09:35:20;;;;;;;;;;;18.60;63.40;;;;;;5042145;28;19937;-63
2023/09/26 09:37:47;;;;;;;;;;;18.70;63.40;;;;;;5045199;28;19932;-60
2023/09/26 09:40:19;;;;;;;;;;;18.60;63.20;;;;;;5044070;28;19933;-61
2023/09/26 09:42:48;;;;;;;;;;;18.70;63.40;;;;;;5046533;28;20305;-61
2023/09/26 09:45:16;;;;;;;;;;;18.70;63.20;;;;;;5039463;28;19979;-61
2023/09/26 09:47:45;;;;;;;;;;;18.70;63.10;;;;;;5035760;28;19979;-61
2023/09/26 09:50:13;;;;;;;;;;;18.70;62.60;;;;;;5043406;28;20393;-60
2023/09/26 09:52:43;;;;;;;;;;;18.70;62.80;;;;;;5044793;28;20400;-60
2023/09/26 09:55:23;;;;;;;;;;;18.70;63.20;;;;;;5044119;28;19936;-60
2023/09/26 09:57:51;;;;;;;;;;;18.80;61.90;;;;;;5043582;28;19932;-61
2023/09/26 10:00:22;;;;;;;;;;;18.70;62.30;;;;;;5049315;28;19972;-61
2023/09/26 10:02:50;;;;;;;;;;;18.80;63.00;;;;;;5044590;28;19924;-62
2023/09/26 10:05:19;;;;;;;;;;;18.80;62.90;;;;;;5043619;28;19928;-61
2023/09/26 10:07:48;;;;;;;;;;;18.80;62.30;;;;;;5052268;28;19933;-61
2023/09/26 10:10:16;;;;;;;;;;;18.80;61.50;;;;;;5046388;28;19925;-62
2023/09/26 10:12:44;;;;;;;;;;;18.80;63.80;;;;;;5057589;28;19943;-61
2023/09/26 10:15:33;;;;;;;;;;;18.80;62.50;;;;;;5048380;28;19964;-62
2023/09/26 10:18:02;;;;;;;;;;;18.80;63.80;;;;;;5049964;28;20301;-63
2023/09/26 10:20:29;;;;;;;;;;;18.80;63.70;;;;;;5050468;28;19929;-62
2023/09/26 10:23:18;;;;;;;;;;;18.90;63.20;;;;;;5045735;28;19924;-62
2023/09/26 10:25:47;;;;;;;;;;;18.90;62.60;;;;;;5053943;28;19924;-63
2023/09/26 10:28:16;;;;;;;;;;;18.90;62.60;;;;;;5057322;28;20402;-61
2023/09/26 10:30:44;;;;;;;;;;;18.90;62.50;;;;;;5070819;28;19980;-63
2023/09/26 10:33:12;;;;;;;;;;;18.90;62.50;;;;;;5052091;28;19939;-63
2023/09/26 10:36:02;;;;;;;;;;;18.90;63.60;;;;;;5046530;28;19932;-63
2023/09/26 10:38:29;;;;;;;;;;;19.00;62.60;;;;;;5044747;28;19929;-62
2023/09/26 10:40:56;;;;;;;;;;;19.00;62.90;;;;;;5042919;28;20545;-62
2023/09/26 10:43:27;;;;;;;;;;;19.00;63.20;;;;;;5046803;28;19978;-63
2023/09/26 10:46:13;;;;;;;;;;;19.00;63.30;;;;;;5044550;28;19935;-61
2023/09/26 10:48:40;;;;;;;;;;;19.00;63.10;;;;;;5049971;28;19947;-63
2023/09/26 10:51:07;;;;;;;;;;;19.00;61.50;;;;;;5041884;28;19929;-65
2023/09/26 10:53:35;;;;;;;;;;;19.00;62.00;;;;;;5047692;28;19925;-66
2023/09/26 10:56:03;;;;;;;;;;;19.00;60.90;;;;;;5052089;28;19971;-64
2023/09/26 10:58:32;;;;;;;;;;;19.00;62.90;;;;;;5046811;28;19925;-63
2023/09/26 11:00:59;;;;;;;;;;;19.00;60.80;;;;;;5042522;28;20388;-63
2023/09/26 11:03:28;;;;;;;;;;;19.00;61.50;;;;;;5042394;28;19960;-63
2023/09/26 11:05:56;;;;;;;;;;;19.00;61.90;;;;;;5038846;28;19925;-64
2023/09/26 11:08:24;;;;;;;;;;;19.00;61.70;;;;;;5051435;28;21014;-64
2023/09/26 11:10:51;;;;;;;;;;;19.00;62.40;;;;;;5047225;28;19932;-65
2023/09/26 11:13:19;;;;;;;;;;;19.00;62.90;;;;;;5042886;28;20338;-63
2023/09/26 11:15:46;;;;;;;;;;;19.10;61.50;;;;;;5044447;28;19971;-63
2023/09/26 11:18:14;;;;;;;;;;;19.10;61.90;;;;;;5045206;28;20054;-62
2023/09/26 11:20:43;;;;;;;;;;;19.20;63.40;;;;;;5043736;28;19951;-63
2023/09/26 11:23:34;;;;;;;;;;;19.10;62.60;;;;;;5043072;28;20285;-62
2023/09/26 11:26:04;;;;;;;;;;;19.20;62.90;;;;;;5043546;28;20031;-62
2023/09/26 11:28:32;;;;;;;;;;;19.20;61.90;;;;;;5044426;28;20497;-63
2023/09/26 11:31:00;;;;;;;;;;;19.20;62.80;;;;;;5045537;28;20030;-62
2023/09/26 11:33:27;;;;;;;;;;;19.30;62.60;;;;;;5044138;28;19930;-62
2023/09/26 11:35:54;;;;;;;;;;;19.30;63.10;;;;;;5045372;28;19939;-63
2023/09/26 11:38:21;;;;;;;;;;;19.30;62.30;;;;;;5041270;28;20440;-61
2023/09/26 11:40:49;;;;;;;;;;;19.40;62.70;;;;;;5046508;28;20023;-63
2023/09/26 11:43:18;;;;;;;;;;;19.40;62.80;;;;;;5043406;28;19931;-62
2023/09/26 11:45:45;;;;;;;;;;;19.40;62.50;;;;;;5044892;28;19932;-62
2023/09/26 11:48:12;;;;;;;;;;;19.40;62.70;;;;;;5041529;28;19929;-62
2023/09/26 11:50:40;;;;;;;;;;;19.40;62.40;;;;;;5043017;28;19933;-62
2023/09/26 11:53:07;;;;;;;;;;;19.40;61.90;;;;;;5036628;28;20885;-62
2023/09/26 11:55:35;;;;;;;;;;;19.40;62.50;;;;;;5042770;28;19955;-63
2023/09/26 11:58:03;;;;;;;;;;;19.40;61.80;;;;;;5042727;28;20003;-64
2023/09/26 12:00:30;;;;;;;;;;;19.40;62.10;;;;;;5046335;28;19935;-63
2023/09/26 12:02:57;;;;;;;;;;;19.40;62.10;;;;;;5041961;28;19925;-62
2023/09/26 12:05:25;;;;;;;;;;;19.40;62.10;;;;;;5047099;28;19933;-64
2023/09/26 12:07:52;;;;;;;;;;;19.50;61.90;;;;;;5046464;28;19987;-62
2023/09/26 12:10:19;;;;;;;;;;;19.50;62.30;;;;;;5043512;28;19975;-62
2023/09/26 12:12:46;;;;;;;;;;;19.50;61.30;;;;;;5046720;28;19925;-62
2023/09/26 12:15:21;;;;;;;;;;;19.50;61.90;;;;;;5044361;28;19932;-61
2023/09/26 12:17:49;;;;;;;;;;;19.60;61.20;;;;;;5051442;28;19936;-61
2023/09/26 12:20:21;;;;;;;;;;;19.60;62.20;;;;;;5049756;28;20282;-64
2023/09/26 12:22:49;;;;;;;;;;;19.60;61.10;;;;;;5059559;28;19929;-61
2023/09/26 12:25:22;;;;;;;;;;;19.60;61.70;;;;;;5049852;28;19979;-62
2023/09/26 12:27:49;;;;;;;;;;;19.60;61.20;;;;;;5044109;28;20310;-63
2023/09/26 12:30:18;;;;;;;;;;;19.60;60.90;;;;;;5050825;28;20369;-62
2023/09/26 12:32:46;;;;;;;;;;;19.60;60.80;;;;;;5046081;28;20282;-63
2023/09/26 12:35:13;;;;;;;;;;;19.60;61.60;;;;;;5047715;28;19936;-64
2023/09/26 12:37:41;;;;;;;;;;;19.70;61.50;;;;;;5048317;28;19978;-62
2023/09/26 12:40:12;;;;;;;;;;;19.70;60.80;;;;;;5045693;28;20024;-63
2023/09/26 12:42:40;;;;;;;;;;;19.70;61.00;;;;;;5050443;28;19932;-62
2023/09/26 12:45:08;;;;;;;;;;;19.70;61.00;;;;;;5049229;28;19974;-63
2023/09/26 12:47:35;;;;;;;;;;;19.70;60.60;;;;;;5048555;28;20019;-64
2023/09/26 12:50:07;;;;;;;;;;;19.80;60.70;;;;;;5049081;28;19925;-65
2023/09/26 12:52:35;;;;;;;;;;;19.70;60.40;;;;;;5047451;28;19929;-63
2023/09/26 12:55:02;;;;;;;;;;;19.80;60.40;;;;;;5050688;28;19936;-63
2023/09/26 12:57:29;;;;;;;;;;;19.70;60.00;;;;;;5042451;28;19925;-64
2023/09/26 12:59:56;;;;;;;;;;;19.70;59.90;;;;;;5040487;28;19982;-65
2023/09/26 13:02:24;;;;;;;;;;;19.70;60.00;;;;;;5046784;28;19956;-63
2023/09/26 13:04:52;;;;;;;;;;;19.80;59.40;;;;;;5047453;28;20377;-63
2023/09/26 13:07:19;;;;;;;;;;;19.80;60.40;;;;;;5046790;28;19932;-62
2023/09/26 13:09:46;;;;;;;;;;;19.70;60.50;;;;;;5047297;28;20266;-62
2023/09/26 13:12:14;;;;;;;;;;;19.80;60.90;;;;;;5047938;28;20393;-64
2023/09/26 13:14:41;;;;;;;;;;;19.70;60.40;;;;;;5047977;28;19928;-61
2023/09/26 13:17:15;;;;;;;;;;;19.70;58.60;;;;;;5045528;28;20365;-63
2023/09/26 13:19:42;;;;;;;;;;;19.80;59.80;;;;;;5045641;28;19968;-61
2023/09/26 13:22:14;;;;;;;;;;;19.70;59.70;;;;;;5047435;28;19931;-62
2023/09/26 13:24:42;;;;;;;;;;;19.70;60.10;;;;;;5051546;28;19931;-62
2023/09/26 13:27:09;;;;;;;;;;;19.70;59.70;;;;;;5047966;28;19932;-62
2023/09/26 13:29:36;;;;;;;;;;;19.70;60.00;;;;;;5043302;28;20015;-61
2023/09/26 13:32:04;;;;;;;;;;;19.70;58.80;;;;;;5045809;28;19933;-61
2023/09/26 13:34:31;;;;;;;;;;;19.70;59.40;;;;;;5046341;28;19956;-61
2023/09/26 13:36:58;;;;;;;;;;;19.70;60.10;;;;;;5046608;28;19936;-62
2023/09/26 13:39:27;;;;;;;;;;;19.70;60.40;;;;;;5045530;28;19925;-61
2023/09/26 13:41:55;;;;;;;;;;;19.70;60.20;;;;;;5045600;28;20293;-61
2023/09/26 13:44:22;;;;;;;;;;;19.70;59.80;;;;;;5044108;28;20016;-62
2023/09/26 13:46:49;;;;;;;;;;;19.70;59.60;;;;;;5045389;28;19982;-59
2023/09/26 13:49:16;;;;;;;;;;;19.70;60.80;;;;;;5047239;28;19925;-61
2023/09/26 13:51:43;;;;;;;;;;;19.70;60.20;;;;;;5046590;28;19925;-60
2023/09/26 13:54:12;;;;;;;;;;;19.70;60.10;;;;;;5047204;28;19970;-63
2023/09/26 13:56:39;;;;;;;;;;;19.70;60.30;;;;;;5044745;28;19925;-60
2023/09/26 13:59:06;;;;;;;;;;;19.70;60.60;;;;;;5064473;28;20028;-64
2023/09/26 14:01:34;;;;;;;;;;;19.70;60.20;;;;;;5042287;28;19935;-61
2023/09/26 14:04:01;;;;;;;;;;;19.70;60.30;;;;;;5042889;28;20044;-60
2023/09/26 14:06:28;;;;;;;;;;;19.80;64.10;;;;;;5032272;28;19964;-62
2023/09/26 14:08:56;;;;;;;;;;;20.00;72.00;;;;;;5045551;28;19931;-62
2023/09/26 14:11:23;;;;;;;;;;;20.30;75.80;;;;;;5048024;28;19973;-62
2023/09/26 14:13:50;;;;;;;;;;;20.70;77.90;;;;;;5047016;28;19936;-61
2023/09/26 14:16:17;;;;;;;;;;;21.00;78.10;;;;;;5047328;28;19963;-60
2023/09/26 14:18:44;;;;;;;;;;;21.40;78.10;;;;;;5047400;28;19939;-61
2023/09/26 14:21:14;;;;;;;;;;;21.70;78.60;;;;;;5048118;28;19929;-61